TimeCST,TemperatureF,Dew PointF,Humidity,Sea Level PressureIn,VisibilityMPH,Wind Direction,Wind SpeedMPH,Gust SpeedMPH,PrecipitationIn,Events,Conditions,WindDirDegrees,DateUTC
12:53 AM,25.0,21.9,88,30.29,10.0,South,10.4,-,N/A,,Overcast,190,2013-11-25 06:53:00
1:06 AM,24.8,21.2,86,30.22,10.0,South,12.7,-,N/A,,Overcast,180,2013-11-25 07:06:00
1:53 AM,24.1,21.9,91,30.27,10.0,South,11.5,-,N/A,,Overcast,190,2013-11-25 07:53:00
2:02 AM,24.8,23.0,93,30.21,9.0,South,11.5,-,N/A,,Overcast,180,2013-11-25 08:02:00
2:34 AM,24.8,23.0,93,30.21,9.0,South,12.7,-,N/A,,Overcast,180,2013-11-25 08:34:00
2:53 AM,25.0,23.0,92,30.26,9.0,South,15.0,-,N/A,,Overcast,180,2013-11-25 08:53:00
3:53 AM,25.0,24.1,96,30.24,8.0,South,9.2,-,N/A,,Overcast,190,2013-11-25 09:53:00
4:53 AM,25.0,24.1,96,30.23,6.0,South,9.2,-,N/A,,Overcast,170,2013-11-25 10:53:00
5:53 AM,26.1,25.0,96,30.23,4.0,SSE,10.4,-,N/A,,Overcast,160,2013-11-25 11:53:00
6:33 AM,26.6,24.8,93,30.16,2.0,SSE,10.4,-,0.00,,Overcast,160,2013-11-25 12:33:00
6:44 AM,26.6,24.8,93,30.16,1.5,SSE,11.5,-,0.00,,Overcast,160,2013-11-25 12:44:00
6:53 AM,26.1,25.0,96,30.22,1.8,SSE,10.4,-,0.00,,Overcast,160,2013-11-25 12:53:00
7:53 AM,27.0,26.1,96,30.22,1.0,South,10.4,-,N/A,,Overcast,170,2013-11-25 13:53:00
8:03 AM,26.6,26.6,100,30.17,0.8,SSE,11.5,-,N/A,,Overcast,160,2013-11-25 14:03:00
8:11 AM,26.6,26.6,100,30.17,0.5,South,11.5,-,0.00,Fog-Rain,Light Freezing Rain,170,2013-11-25 14:11:00
8:53 AM,27.0,26.1,96,30.23,0.5,SSE,13.8,-,0.00,Fog-Rain,Light Freezing Rain,160,2013-11-25 14:53:00
9:21 AM,26.6,26.6,100,30.19,0.8,SSE,11.5,-,0.00,Rain,Light Freezing Rain,160,2013-11-25 15:21:00
9:28 AM,26.6,26.6,100,30.19,0.8,South,11.5,-,0.00,Snow,Light Snow,170,2013-11-25 15:28:00
9:38 AM,28.4,26.6,93,30.20,1.0,South,10.4,-,0.00,Rain,Light Freezing Rain,170,2013-11-25 15:38:00
9:53 AM,28.0,27.0,96,30.25,1.2,South,9.2,-,0.00,Rain,Light Freezing Rain,170,2013-11-25 15:53:00
10:00 AM,28.4,26.6,93,30.20,1.2,South,10.4,-,0.00,Snow,Light Snow,170,2013-11-25 16:00:00
10:21 AM,28.4,26.6,93,30.20,2.0,South,9.2,-,0.00,,Overcast,170,2013-11-25 16:21:00
10:53 AM,28.0,28.0,100,30.26,3.0,South,6.9,-,0.00,,Overcast,180,2013-11-25 16:53:00
11:53 AM,28.9,27.0,92,30.24,6.0,SSE,5.8,-,0.00,,Overcast,160,2013-11-25 17:53:00
12:53 PM,28.9,28.0,96,30.22,5.0,South,3.5,-,0.00,,Overcast,170,2013-11-25 18:53:00
1:53 PM,30.0,28.0,92,30.22,6.0,ESE,4.6,-,N/A,,Overcast,120,2013-11-25 19:53:00
2:41 PM,30.2,28.4,93,30.17,7.0,Calm,Calm,-,N/A,,Overcast,0,2013-11-25 20:41:00
2:53 PM,30.9,28.0,89,30.22,8.0,Calm,Calm,-,N/A,,Overcast,0,2013-11-25 20:53:00
3:53 PM,30.9,28.0,89,30.23,10.0,NNE,3.5,-,N/A,,Overcast,30,2013-11-25 21:53:00
4:53 PM,32.0,28.0,85,30.24,10.0,NNE,5.8,-,N/A,,Overcast,20,2013-11-25 22:53:00
5:53 PM,30.9,28.9,92,30.26,8.0,North,9.2,-,N/A,,Overcast,10,2013-11-25 23:53:00
6:49 PM,30.2,28.4,93,30.22,10.0,NNW,5.8,-,N/A,,Overcast,340,2013-11-26 00:49:00
6:53 PM,30.9,28.9,92,30.27,10.0,North,5.8,-,N/A,,Overcast,350,2013-11-26 00:53:00
7:53 PM,32.0,28.9,88,30.28,10.0,NNW,8.1,-,N/A,,Overcast,340,2013-11-26 01:53:00
8:02 PM,32.0,28.4,87,30.23,10.0,North,8.1,-,N/A,,Overcast,350,2013-11-26 02:02:00
8:53 PM,32.0,28.9,88,30.28,10.0,NNW,6.9,-,N/A,,Overcast,340,2013-11-26 02:53:00
9:53 PM,33.1,28.9,85,30.27,10.0,NNW,10.4,-,N/A,,Overcast,340,2013-11-26 03:53:00
10:53 PM,33.1,28.0,82,30.27,10.0,North,9.2,-,N/A,,Overcast,350,2013-11-26 04:53:00
11:34 PM,32.0,26.6,80,30.23,10.0,NNW,6.9,-,N/A,,Scattered Clouds,340,2013-11-26 05:34:00
11:53 PM,30.9,27.0,85,30.27,10.0,NNW,8.1,-,N/A,,Partly Cloudy,330,2013-11-26 05:53:00